Time;durP1;ratioP1;P1;durP2;ratioP2;P2;SDS_P1;SDS_P2;PMS_P1;PMS_P2;Temp;Humidity;BMP_temperature;BMP_pressure;BME280_temperature;BME280_humidity;BME280_pressure;Samples;Min_cycle;Max_cycle;Signal;HPM_P1;HPM_P2
2022/10/27 00:00:12;;;;;;;24.08;16.85;;;;;;;10.63;100.00;101965.59;2079661;28;35493;-71
2022/10/27 00:01:15;;;;;;;21.10;16.42;;;;;;;10.60;100.00;101973.63;2079324;28;20089;-72
2022/10/27 00:02:20;;;;;;;24.98;18.27;;;;;;;10.62;100.00;101969.19;2072669;28;30235;-71
2022/10/27 00:03:22;;;;;;;24.50;17.77;;;;;;;10.59;100.00;101974.56;2072307;28;31366;-72
2022/10/27 00:04:24;;;;;;;19.85;16.38;;;;;;;10.54;100.00;101971.00;2080197;28;34958;-71
2022/10/27 00:05:25;;;;;;;20.23;15.82;;;;;;;10.50;100.00;101972.81;2079956;28;28798;-72
2022/10/27 00:06:28;;;;;;;21.02;16.88;;;;;;;10.47;100.00;101967.47;2072937;28;20079;-72
2022/10/27 00:07:29;;;;;;;19.42;16.55;;;;;;;10.46;100.00;101973.75;2072337;28;36318;-72
2022/10/27 00:08:31;;;;;;;18.17;15.45;;;;;;;10.43;100.00;101978.22;2072891;28;20043;-71
2022/10/27 00:09:33;;;;;;;24.30;17.92;;;;;;;10.38;100.00;101980.03;2072229;28;31947;-72
2022/10/27 00:10:35;;;;;;;19.33;14.52;;;;;;;10.38;100.00;101983.59;2071990;28;36248;-71
2022/10/27 00:11:37;;;;;;;26.33;18.63;;;;;;;10.40;100.00;101983.59;2072040;28;35800;-72
2022/10/27 00:12:38;;;;;;;26.20;18.98;;;;;;;10.41;100.00;101982.66;2072166;28;33165;-72
2022/10/27 00:13:40;;;;;;;21.65;16.27;;;;;;;10.37;100.00;101986.28;2071574;28;35715;-72
2022/10/27 00:14:42;;;;;;;28.50;19.48;;;;;;;10.38;100.00;101985.38;2072360;28;32146;-72
2022/10/27 00:16:04;;;;;;;25.02;19.50;;;;;;;10.38;100.00;101985.38;2072501;28;28708;-71
2022/10/27 00:17:05;;;;;;;22.48;17.08;;;;;;;10.32;100.00;101980.97;2080011;28;30785;-71
2022/10/27 00:18:11;;;;;;;21.63;17.10;;;;;;;10.31;100.00;101989.88;2079813;28;30095;-71
2022/10/27 00:19:12;;;;;;;21.50;17.48;;;;;;;10.29;100.00;101978.25;2080540;28;20046;-71
2022/10/27 00:20:14;;;;;;;22.17;16.38;;;;;;;10.27;100.00;101978.25;2079115;28;38750;-71
2022/10/27 00:21:20;;;;;;;27.25;16.60;;;;;;;10.27;100.00;101990.75;2073024;28;20041;-71
2022/10/27 00:22:22;;;;;;;21.38;15.32;;;;;;;10.23;100.00;101980.94;2072396;28;32250;-71
2022/10/27 00:23:24;;;;;;;23.17;16.75;;;;;;;10.23;100.00;101986.28;2072398;28;32424;-71
2022/10/27 00:24:26;;;;;;;19.10;15.57;;;;;;;10.19;100.00;101990.78;2072322;28;30614;-71
2022/10/27 00:25:27;;;;;;;20.65;15.80;;;;;;;10.15;100.00;101985.47;2072404;28;35213;-71
2022/10/27 00:26:29;;;;;;;21.58;15.77;;;;;;;10.13;100.00;101997.03;2072124;28;36095;-71
2022/10/27 00:27:31;;;;;;;24.27;18.27;;;;;;;10.12;100.00;101997.97;2072259;28;37499;-71
2022/10/27 00:28:35;;;;;;;22.10;17.60;;;;;;;10.10;100.00;101996.16;2072340;28;24360;-71
2022/10/27 00:29:37;;;;;;;19.58;15.75;;;;;;;10.07;100.00;102002.44;2072454;28;36716;-72
2022/10/27 00:30:38;;;;;;;20.33;15.48;;;;;;;10.07;100.00;101999.75;2072011;28;37935;-72
2022/10/27 00:31:40;;;;;;;22.00;16.15;;;;;;;10.06;100.00;102005.09;2072309;28;35495;-71
2022/10/27 00:32:42;;;;;;;17.85;14.52;;;;;;;10.03;100.00;102005.13;2072093;28;36657;-71
2022/10/27 00:33:46;;;;;;;21.00;14.88;;;;;;;10.02;100.00;102003.34;2072327;28;33541;-72
2022/10/27 00:34:52;;;;;;;22.50;16.52;;;;;;;10.01;100.00;102006.91;2072084;28;31474;-71
2022/10/27 00:35:54;;;;;;;18.48;14.93;;;;;;;9.98;100.00;102002.47;2072721;28;20043;-71
2022/10/27 00:36:56;;;;;;;23.90;17.40;;;;;;;9.97;100.00;102010.50;2072037;28;38190;-71
2022/10/27 00:37:59;;;;;;;20.25;15.15;;;;;;;9.93;100.00;102007.81;2072442;28;20888;-71
2022/10/27 00:39:00;;;;;;;21.52;14.43;;;;;;;9.93;100.00;102007.81;2071601;28;37320;-72
2022/10/27 00:40:02;;;;;;;18.17;14.40;;;;;;;9.92;100.00;102019.44;2072507;28;31605;-72
2022/10/27 00:41:07;;;;;;;19.65;15.13;;;;;;;9.93;100.00;102023.88;2071720;28;39737;-72
2022/10/27 00:42:13;;;;;;;28.40;19.48;;;;;;;10.00;100.00;102015.84;2072219;28;35288;-72
2022/10/27 00:43:34;;;;;;;22.45;18.23;;;;;;;9.97;100.00;102029.22;2078674;28;38867;-72
2022/10/27 00:44:44;;;;;;;19.52;15.82;;;;;;;9.93;100.00;102021.19;2078493;28;32513;-71
2022/10/27 00:45:45;;;;;;;24.70;18.83;;;;;;;9.99;100.00;102024.75;2073121;28;20105;-72
2022/10/27 00:46:47;;;;;;;27.83;19.15;;;;;;;10.02;100.00;102024.75;2072180;28;39105;-72
2022/10/27 00:47:49;;;;;;;30.30;18.88;;;;;;;10.04;100.00;102028.31;2072333;28;31112;-72
2022/10/27 00:48:59;;;;;;;28.23;19.25;;;;;;;10.01;100.00;102023.84;2072256;28;20046;-71
2022/10/27 00:50:32;;;;;;;28.05;18.83;;;;;;;10.01;100.00;102031.00;2071693;28;36576;-72
2022/10/27 00:51:38;;;;;;;28.23;18.42;;;;;;;10.06;100.00;102034.53;2068779;28;25557;-72
2022/10/27 00:52:45;;;;;;;28.23;19.85;;;;;;;10.06;100.00;102031.88;2076280;28;38501;-71
2022/10/27 00:53:48;;;;;;;27.20;17.77;;;;;;;10.03;100.00;102034.53;2071874;28;35587;-72
2022/10/27 00:54:52;;;;;;;29.17;21.08;;;;;;;10.20;100.00;102035.38;2071541;28;35011;-71
2022/10/27 00:55:54;;;;;;;33.20;23.42;;;;;;;10.26;100.00;102034.47;2071967;28;28763;-72
2022/10/27 00:56:57;;;;;;;33.40;22.55;;;;;;;10.19;100.00;102038.94;2072783;28;35676;-71
2022/10/27 00:58:05;;;;;;;27.08;19.23;;;;;;;10.18;100.00;102039.84;2071928;28;33970;-71
2022/10/27 00:59:13;;;;;;;29.05;19.13;;;;;;;10.20;100.00;102040.75;2072389;28;20831;-72
2022/10/27 01:00:16;;;;;;;27.15;19.73;;;;;;;10.21;100.00;102038.94;2079026;28;38530;-72
2022/10/27 01:01:18;;;;;;;26.05;20.33;;;;;;;10.17;100.00;102046.09;2079606;28;35526;-72
2022/10/27 01:02:19;;;;;;;29.73;18.25;;;;;;;10.12;100.00;102043.44;2071821;28;26842;-71
2022/10/27 01:03:22;;;;;;;24.00;17.10;;;;;;;10.13;100.00;102039.84;2071548;28;35213;-72
2022/10/27 01:04:55;;;;;;;28.20;16.55;;;;;;;10.10;100.00;102044.34;2079132;28;35441;-71
2022/10/27 01:05:58;;;;;;;24.05;17.83;;;;;;;10.12;100.00;102043.44;2076188;28;20880;-71
2022/10/27 01:07:00;;;;;;;24.20;17.08;;;;;;;10.12;100.00;102040.78;2071621;28;39063;-71
2022/10/27 01:08:05;;;;;;;25.10;17.90;;;;;;;10.10;100.00;102044.34;2071786;28;36297;-72
2022/10/27 01:09:08;;;;;;;32.13;19.85;;;;;;;10.07;100.00;102039.00;2079549;28;33253;-71
2022/10/27 01:10:11;;;;;;;29.77;20.58;;;;;;;10.17;100.00;102046.09;2078991;28;20038;-71
2022/10/27 01:11:13;;;;;;;33.55;22.48;;;;;;;10.20;100.00;102040.75;2071595;28;35099;-71
2022/10/27 01:12:14;;;;;;;30.77;21.40;;;;;;;10.19;100.00;102046.09;2071866;28;30926;-71
2022/10/27 01:13:18;;;;;;;28.85;20.30;;;;;;;10.18;100.00;102042.53;2072212;28;26665;-72
2022/10/27 01:14:19;;;;;;;26.90;19.10;;;;;;;10.19;100.00;102046.09;2079516;28;27969;-72
2022/10/27 01:15:35;;;;;;;24.13;18.17;;;;;;;10.13;100.00;102045.22;2079459;28;39066;-71
2022/10/27 01:16:52;;;;;;;25.42;16.75;;;;;;;10.07;100.00;102039.00;2071893;28;30195;-72
2022/10/27 01:18:18;;;;;;;22.92;16.48;;;;;;;10.08;100.00;102038.09;2071549;28;38908;-71
2022/10/27 01:19:58;;;;;;;31.50;19.83;;;;;;;10.06;100.00;102045.25;2071991;28;32852;-71
2022/10/27 01:21:15;;;;;;;33.25;22.85;;;;;;;10.24;100.00;102037.16;2071724;28;32013;-71
2022/10/27 01:22:29;;;;;;;33.38;20.90;;;;;;;10.16;100.00;102040.75;2072228;28;32606;-71
2022/10/27 01:23:55;;;;;;;28.75;19.73;;;;;;;10.09;100.00;102051.47;2071940;28;33462;-71
2022/10/27 01:25:19;;;;;;;27.77;18.52;;;;;;;10.13;100.00;102049.69;2071449;28;30173;-71
2022/10/27 01:26:44;;;;;;;27.23;16.77;;;;;;;10.14;100.00;102040.78;2072072;28;30444;-72
2022/10/27 01:28:17;;;;;;;24.38;17.10;;;;;;;10.08;100.00;102046.13;2072293;28;29466;-71
2022/10/27 01:29:48;;;;;;;27.65;18.85;;;;;;;10.12;100.00;102048.81;2071573;28;41024;-71
2022/10/27 01:31:18;;;;;;;28.80;18.60;;;;;;;10.17;100.00;102051.44;2071749;28;37304;-71
2022/10/27 01:33:12;;;;;;;28.40;19.20;;;;;;;10.12;100.00;102058.59;2072003;28;30530;-71
2022/10/27 01:34:37;;;;;;;31.23;19.15;;;;;;;10.14;100.00;102059.50;2054624;28;39543;-71
2022/10/27 01:36:01;;;;;;;25.17;17.60;;;;;;;10.13;100.00;102061.28;2046394;28;38858;-71
2022/10/27 01:37:19;;;;;;;30.30;18.77;;;;;;;10.12;100.00;102063.94;2068393;28;33881;-71
2022/10/27 01:38:30;;;;;;;28.05;18.70;;;;;;;10.09;100.00;102058.63;2079863;28;31937;-71
2022/10/27 01:40:12;;;;;;;32.78;19.38;;;;;;;10.13;100.00;102060.38;2075987;28;35479;-71
2022/10/27 01:41:26;;;;;;;29.58;18.85;;;;;;;10.13;100.00;102065.75;2077473;28;38212;-71
2022/10/27 01:42:40;;;;;;;23.60;15.65;;;;;;;10.08;100.00;102062.19;2071410;28;31707;-71
2022/10/27 01:43:45;;;;;;;24.30;18.33;;;;;;;10.08;100.00;102055.03;2074457;28;20045;-71
2022/10/27 01:44:52;;;;;;;28.80;18.23;;;;;;;10.11;100.00;102054.16;2072544;28;37615;-71
2022/10/27 01:45:57;;;;;;;30.83;20.88;;;;;;;10.19;100.00;102064.81;2072998;28;39084;-72
2022/10/27 01:47:00;;;;;;;30.10;20.13;;;;;;;10.16;100.00;102057.72;2078345;28;36285;-70
2022/10/27 01:48:04;;;;;;;26.25;18.30;;;;;;;10.20;100.00;102064.81;2070954;28;35476;-71
2022/10/27 01:49:07;;;;;;;29.67;19.30;;;;;;;10.15;100.00;102058.59;2072602;28;20915;-71
2022/10/27 01:50:09;;;;;;;30.38;19.80;;;;;;;10.17;100.00;102062.16;2070779;28;39463;-71
2022/10/27 01:51:11;;;;;;;35.03;20.58;;;;;;;10.16;100.00;102060.38;2070951;28;36200;-71
2022/10/27 01:52:44;;;;;;;40.58;21.00;;;;;;;10.20;100.00;102055.91;2070761;28;36951;-71
2022/10/27 01:53:50;;;;;;;29.77;19.60;;;;;;;10.23;100.00;102062.16;2067146;28;32490;-71
2022/10/27 01:54:54;;;;;;;29.38;18.42;;;;;;;10.19;100.00;102065.72;2063406;28;37144;-71
2022/10/27 01:56:36;;;;;;;33.80;19.27;;;;;;;10.13;100.00;102060.38;2070929;28;31531;-71
2022/10/27 01:58:18;;;;;;;33.30;20.98;;;;;;;10.13;100.00;102065.75;2071136;28;30453;-71
2022/10/27 01:59:53;;;;;;;26.38;15.85;;;;;;;10.10;100.00;102071.09;2072021;28;32005;-71
2022/10/27 02:01:19;;;;;;;24.10;17.20;;;;;;;10.04;100.00;102065.78;2071446;28;32407;-71
2022/10/27 02:03:03;;;;;;;24.15;14.30;;;;;;;10.03;100.00;102069.31;2071441;28;23178;-71
2022/10/27 02:04:34;;;;;;;25.23;15.43;;;;;;;9.97;100.00;102069.34;2054596;28;20904;-71
2022/10/27 02:05:49;;;;;;;30.63;18.27;;;;;;;9.97;100.00;102072.03;2068894;28;38804;-72
2022/10/27 02:07:12;;;;;;;27.13;17.45;;;;;;;9.96;100.00;102070.25;2070595;28;29202;-71
2022/10/27 02:08:44;;;;;;;26.50;17.48;;;;;;;10.02;100.00;102073.78;2066985;28;40635;-71
2022/10/27 02:09:55;;;;;;;28.45;19.25;;;;;;;10.06;100.00;102064.84;2071713;28;31756;-71
2022/10/27 02:11:10;;;;;;;25.73;18.20;;;;;;;10.09;100.00;102072.88;2069926;28;33481;-71
2022/10/27 02:12:25;;;;;;;30.23;17.85;;;;;;;10.19;100.00;102067.50;2058859;28;20065;-71
2022/10/27 02:13:30;;;;;;;32.72;21.15;;;;;;;10.25;100.00;102064.81;2067290;28;31752;-71
2022/10/27 02:14:34;;;;;;;35.78;22.88;;;;;;;10.35;100.00;102065.69;2071257;28;36420;-72
2022/10/27 02:15:49;;;;;;;34.25;22.67;;;;;;;10.31;100.00;102068.38;2057164;28;35942;-71
2022/10/27 02:16:53;;;;;;;31.65;20.55;;;;;;;10.29;100.00;102075.50;2059167;28;39938;-72
2022/10/27 02:18:04;;;;;;;31.15;19.50;;;;;;;10.25;100.00;102073.75;2071296;28;30830;-72
2022/10/27 02:19:32;;;;;;;26.48;17.67;;;;;;;10.20;100.00;102074.66;2071033;28;39258;-71
2022/10/27 02:20:41;;;;;;;32.00;19.50;;;;;;;10.30;100.00;102074.63;2071120;28;32313;-71
2022/10/27 02:21:46;;;;;;;31.10;19.42;;;;;;;10.33;100.00;102079.09;2071273;28;36870;-71
2022/10/27 02:22:52;;;;;;;37.25;20.67;;;;;;;10.34;100.00;102077.28;2070637;28;37251;-71
2022/10/27 02:23:54;;;;;;;29.70;18.38;;;;;;;10.26;100.00;102078.19;2064425;28;30728;-71
2022/10/27 02:24:56;;;;;;;31.92;19.38;;;;;;;10.29;100.00;102072.81;2070854;28;34185;-71
2022/10/27 02:26:07;;;;;;;39.42;21.65;;;;;;;10.32;100.00;102077.31;2071492;28;38361;-71
2022/10/27 02:27:21;;;;;;;27.92;18.38;;;;;;;10.38;100.00;102082.63;2070432;28;36528;-71
2022/10/27 02:28:37;;;;;;;29.02;19.83;;;;;;;10.30;100.00;102079.97;2062904;28;20038;-71
2022/10/27 02:29:47;;;;;;;35.30;21.70;;;;;;;10.42;100.00;102086.19;2062908;28;27744;-71
2022/10/27 02:30:50;;;;;;;33.88;20.38;;;;;;;10.41;100.00;102088.00;2070805;28;36836;-72
2022/10/27 02:31:59;;;;;;;32.28;21.33;;;;;;;10.45;100.00;102083.53;2070511;28;20880;-71
2022/10/27 02:33:01;;;;;;;29.85;18.33;;;;;;;10.46;100.00;102090.63;2071328;28;32060;-72
2022/10/27 02:34:05;;;;;;;32.90;20.08;;;;;;;10.48;100.00;102094.19;2071100;28;30424;-71
2022/10/27 02:35:09;;;;;;;28.67;18.65;;;;;;;10.50;100.00;102089.75;2071067;28;33622;-71
2022/10/27 02:36:11;;;;;;;25.33;17.35;;;;;;;10.51;100.00;102091.50;2070543;28;37565;-71
2022/10/27 02:37:29;;;;;;;27.42;18.67;;;;;;;10.57;100.00;102091.50;2071278;28;20237;-71
2022/10/27 02:38:31;;;;;;;29.35;18.58;;;;;;;10.58;100.00;102092.38;2064105;28;35979;-71
2022/10/27 02:39:33;;;;;;;29.92;18.58;;;;;;;10.61;100.00;102095.94;2063411;28;31303;-71
2022/10/27 02:40:35;;;;;;;27.00;17.45;;;;;;;10.64;100.00;102095.94;2063541;28;31138;-71
2022/10/27 02:41:43;;;;;;;34.90;19.95;;;;;;;10.71;100.00;102091.41;2071794;28;20040;-71
2022/10/27 02:42:47;;;;;;;32.90;20.15;;;;;;;10.72;100.00;102086.97;2070556;28;20046;-70
2022/10/27 02:43:49;;;;;;;33.65;19.17;;;;;;;10.74;100.00;102090.53;2063185;28;22978;-71
2022/10/27 02:44:51;;;;;;;31.45;20.02;;;;;;;10.77;100.00;102093.19;2063633;28;28673;-71
2022/10/27 02:45:53;;;;;;;31.20;19.33;;;;;;;10.81;100.00;102092.28;2064092;28;20817;-71
2022/10/27 02:46:54;;;;;;;32.92;20.73;;;;;;;10.90;100.00;102094.91;2063367;28;34202;-72
2022/10/27 02:47:57;;;;;;;29.92;17.73;;;;;;;10.88;100.00;102094.03;2063250;28;37123;-71
2022/10/27 02:48:59;;;;;;;32.97;20.92;;;;;;;10.92;100.00;102094.91;2063396;28;35126;-71
2022/10/27 02:50:01;;;;;;;35.70;20.23;;;;;;;10.92;100.00;102090.41;2062727;28;37814;-71
2022/10/27 02:51:03;;;;;;;29.67;18.25;;;;;;;10.94;100.00;102093.97;2071859;28;20869;-72
2022/10/27 02:52:04;;;;;;;27.35;17.77;;;;;;;11.02;100.00;102102.00;2070230;28;36948;-72
2022/10/27 02:53:06;;;;;;;28.60;18.73;;;;;;;11.04;100.00;102095.72;2062952;28;32704;-71
2022/10/27 02:54:08;;;;;;;29.70;16.60;;;;;;;11.04;100.00;102095.72;2063977;28;20034;-71
2022/10/27 02:55:12;;;;;;;33.92;19.33;;;;;;;11.07;100.00;102084.06;2063305;28;33685;-71
2022/10/27 02:56:14;;;;;;;29.85;18.90;;;;;;;11.11;100.00;102085.84;2063667;28;20116;-71
2022/10/27 02:57:17;;;;;;;26.30;16.33;;;;;;;11.12;100.00;102090.28;2063658;28;31533;-71
2022/10/27 02:58:19;;;;;;;27.60;15.77;;;;;;;11.12;100.00;102092.09;2064682;28;35711;-71
2022/10/27 02:59:21;;;;;;;31.80;19.05;;;;;;;11.18;100.00;102092.03;2071238;28;29114;-71
2022/10/27 03:00:22;;;;;;;28.55;18.38;;;;;;;11.24;100.00;102092.00;2071801;28;37553;-71
2022/10/27 03:01:24;;;;;;;30.00;17.13;;;;;;;11.20;100.00;102090.25;2071211;28;36475;-71
2022/10/27 03:02:26;;;;;;;26.45;16.90;;;;;;;11.21;100.00;102094.69;2071885;28;20057;-71
2022/10/27 03:03:28;;;;;;;26.92;18.70;;;;;;;11.24;100.00;102092.88;2071510;28;32235;-71
2022/10/27 03:04:29;;;;;;;30.50;18.83;;;;;;;11.27;100.00;102081.28;2071306;28;34572;-71
2022/10/27 03:05:34;;;;;;;36.08;19.50;;;;;;;11.30;100.00;102083.03;2072133;28;20808;-70
2022/10/27 03:06:35;;;;;;;29.73;17.63;;;;;;;11.35;100.00;102090.13;2071100;28;40851;-71
2022/10/27 03:07:37;;;;;;;28.08;17.55;;;;;;;11.37;100.00;102093.69;2072217;28;20136;-71
2022/10/27 03:08:39;;;;;;;28.55;18.15;;;;;;;11.39;100.00;102085.63;2071523;28;30869;-71
2022/10/27 03:09:40;;;;;;;25.42;15.57;;;;;;;11.43;100.00;102087.38;2078916;28;30734;-71
2022/10/27 03:10:43;;;;;;;28.45;16.65;;;;;;;11.42;100.00;102086.50;2079258;28;20988;-71
2022/10/27 03:11:44;;;;;;;29.40;17.88;;;;;;;11.44;100.00;102084.69;2070822;28;35193;-71
2022/10/27 03:12:49;;;;;;;22.77;17.02;;;;;;;11.46;100.00;102088.25;2071503;28;32409;-71
2022/10/27 03:13:51;;;;;;;24.55;16.75;;;;;;;11.46;100.00;102082.00;2071369;28;29547;-71
2022/10/27 03:14:55;;;;;;;25.50;16.15;;;;;;;11.46;100.00;102074.84;2071202;28;39716;-71
2022/10/27 03:15:57;;;;;;;31.65;17.10;;;;;;;11.45;100.00;102075.75;2071432;28;30488;-71
2022/10/27 03:16:59;;;;;;;24.67;15.52;;;;;;;11.42;100.00;102083.81;2071393;28;33607;-71
2022/10/27 03:18:00;;;;;;;26.58;15.27;;;;;;;11.39;100.00;102081.16;2071627;28;33070;-71
2022/10/27 03:19:04;;;;;;;22.15;15.13;;;;;;;11.37;100.00;102082.97;2071396;28;35782;-71
2022/10/27 03:20:06;;;;;;;20.83;13.38;;;;;;;11.30;100.00;102081.22;2071171;28;31999;-71
2022/10/27 03:21:08;;;;;;;18.15;12.73;;;;;;;11.26;100.00;102090.19;2071401;28;29841;-71
2022/10/27 03:22:10;;;;;;;18.08;12.43;;;;;;;11.23;100.00;102090.22;2071390;28;37217;-71
2022/10/27 03:23:12;;;;;;;18.35;12.63;;;;;;;11.19;100.00;102088.47;2073156;28;29715;-71
2022/10/27 03:24:14;;;;;;;22.38;13.55;;;;;;;11.17;100.00;102090.28;2080438;28;32847;-71
2022/10/27 03:25:16;;;;;;;18.77;11.93;;;;;;;11.10;100.00;102089.41;2080213;28;30000;-71
2022/10/27 03:26:18;;;;;;;16.25;10.68;;;;;;;11.06;100.00;102088.53;2073434;28;20038;-71
2022/10/27 03:27:20;;;;;;;17.27;10.30;;;;;;;11.05;100.00;102086.78;2072673;28;30375;-71
2022/10/27 03:28:22;;;;;;;17.70;9.98;;;;;;;11.04;100.00;102095.72;2072778;28;28502;-71
2022/10/27 03:29:26;;;;;;;17.02;12.48;;;;;;;11.06;100.00;102093.91;2073423;28;20804;-71
2022/10/27 03:30:27;;;;;;;19.92;12.68;;;;;;;11.05;100.00;102094.81;2071995;28;36820;-71
2022/10/27 03:31:29;;;;;;;23.38;13.35;;;;;;;11.03;100.00;102090.34;2072146;28;34971;-71
2022/10/27 03:32:33;;;;;;;16.58;11.95;;;;;;;11.02;100.00;102085.91;2080540;28;20113;-71
2022/10/27 03:33:34;;;;;;;19.42;12.30;;;;;;;11.01;100.00;102089.47;2079398;28;39930;-71
2022/10/27 03:34:39;;;;;;;18.77;13.05;;;;;;;10.99;100.00;102093.97;2072579;28;33642;-73
2022/10/27 03:35:41;;;;;;;26.48;14.77;;;;;;;11.02;100.00;102086.78;2072577;28;34195;-71
2022/10/27 03:36:42;;;;;;;24.63;13.88;;;;;;;10.98;100.00;102085.03;2072737;28;36752;-71
2022/10/27 03:37:45;;;;;;;24.92;15.23;;;;;;;11.00;100.00;102093.03;2079917;28;34794;-71
2022/10/27 03:38:46;;;;;;;22.15;14.18;;;;;;;11.00;100.00;102093.97;2080320;28;28614;-71
2022/10/27 03:39:48;;;;;;;27.67;15.10;;;;;;;10.99;100.00;102094.84;2072623;28;31307;-71
2022/10/27 03:40:52;;;;;;;23.92;14.15;;;;;;;10.99;100.00;102093.97;2072368;28;36797;-71
2022/10/27 03:41:54;;;;;;;20.05;13.40;;;;;;;10.99;100.00;102088.59;2072675;28;30421;-71
2022/10/27 03:42:59;;;;;;;23.20;14.10;;;;;;;11.00;100.00;102096.63;2072703;28;20930;-71
2022/10/27 03:44:00;;;;;;;22.55;14.85;;;;;;;11.00;100.00;102088.59;2072016;28;39632;-71
2022/10/27 03:45:02;;;;;;;24.30;15.05;;;;;;;11.04;100.00;102084.09;2073318;28;29431;-71
2022/10/27 03:46:04;;;;;;;23.90;14.65;;;;;;;11.02;100.00;102081.44;2072908;28;26181;-71
2022/10/27 03:47:06;;;;;;;29.23;15.77;;;;;;;11.05;100.00;102076.06;2072780;28;32827;-71
2022/10/27 03:48:11;;;;;;;24.77;15.80;;;;;;;11.09;100.00;102082.28;2072838;28;31193;-71
2022/10/27 03:49:13;;;;;;;24.92;14.93;;;;;;;11.08;100.00;102081.38;2072799;28;34385;-71
2022/10/27 03:50:15;;;;;;;25.75;15.30;;;;;;;11.08;100.00;102081.38;2073474;28;20030;-71
2022/10/27 03:51:17;;;;;;;21.98;14.48;;;;;;;11.08;100.00;102080.50;2073307;28;20050;-71
2022/10/27 03:52:21;;;;;;;23.60;14.18;;;;;;;11.08;100.00;102081.38;2072582;28;33949;-71
2022/10/27 03:53:23;;;;;;;21.52;13.75;;;;;;;11.07;100.00;102084.97;2072726;28;28599;-71
2022/10/27 03:54:29;;;;;;;22.80;14.93;;;;;;;11.07;100.00;102097.47;2072872;28;20128;-72
2022/10/27 03:55:34;;;;;;;20.00;13.02;;;;;;;11.04;100.00;102089.47;2072459;28;32713;-71
2022/10/27 03:56:36;;;;;;;24.15;13.57;;;;;;;11.03;100.00;102091.22;2080026;28;30753;-71
2022/10/27 03:57:37;;;;;;;20.42;13.85;;;;;;;11.01;100.00;102094.84;2079907;28;32020;-70
2022/10/27 03:58:42;;;;;;;21.15;12.20;;;;;;;11.00;100.00;102098.41;2072169;28;34763;-71
2022/10/27 03:59:43;;;;;;;17.42;12.07;;;;;;;10.97;100.00;102096.66;2073036;28;20045;-70
2022/10/27 04:00:46;;;;;;;18.60;13.50;;;;;;;10.97;100.00;102093.09;2072360;28;35180;-71
2022/10/27 04:01:47;;;;;;;15.52;10.70;;;;;;;10.99;100.00;102093.97;2072645;28;33023;-71
2022/10/27 04:02:53;;;;;;;20.45;13.50;;;;;;;11.00;100.00;102096.63;2072242;28;32059;-71
2022/10/27 04:03:55;;;;;;;22.02;15.27;;;;;;;11.01;100.00;102098.41;2072577;28;34547;-71
2022/10/27 04:04:57;;;;;;;21.90;13.82;;;;;;;11.05;100.00;102097.50;2072636;28;30495;-71
2022/10/27 04:05:59;;;;;;;19.42;13.65;;;;;;;11.06;100.00;102099.25;2073389;28;20093;-70
2022/10/27 04:07:01;;;;;;;18.80;12.50;;;;;;;11.06;100.00;102093.03;2072782;28;33160;-71
2022/10/27 04:08:03;;;;;;;16.65;11.63;;;;;;;11.06;100.00;102095.69;2073159;28;20850;-71
2022/10/27 04:09:05;;;;;;;24.23;15.45;;;;;;;11.10;100.00;102102.81;2072572;28;25207;-71
2022/10/27 04:10:12;;;;;;;21.70;13.57;;;;;;;11.12;100.00;102103.69;2081008;28;20086;-70
2022/10/27 04:11:13;;;;;;;23.23;14.02;;;;;;;11.12;100.00;102097.44;2078972;28;30265;-71
2022/10/27 04:12:16;;;;;;;20.05;12.55;;;;;;;11.13;100.00;102099.25;2072534;28;34033;-71
2022/10/27 04:13:18;;;;;;;19.08;13.18;;;;;;;11.12;100.00;102102.81;2072582;28;24820;-71
2022/10/27 04:14:22;;;;;;;22.63;13.43;;;;;;;11.11;100.00;102092.97;2072332;28;34287;-71
2022/10/27 04:15:26;;;;;;;18.75;12.70;;;;;;;11.11;100.00;102092.97;2072070;28;32162;-70
2022/10/27 04:16:28;;;;;;;26.85;14.30;;;;;;;11.12;100.00;102089.41;2073140;28;20046;-71
2022/10/27 04:17:30;;;;;;;20.95;14.07;;;;;;;11.11;100.00;102096.56;2072152;28;34904;-71
2022/10/27 04:18:32;;;;;;;26.23;14.32;;;;;;;11.13;100.00;102091.19;2079925;28;32911;-71
2022/10/27 04:19:34;;;;;;;18.95;13.85;;;;;;;11.10;100.00;102078.69;2079708;28;36758;-70
2022/10/27 04:20:35;;;;;;;24.15;15.82;;;;;;;11.10;100.00;102081.38;2072344;28;37696;-71
2022/10/27 04:21:37;;;;;;;22.20;15.93;;;;;;;11.08;100.00;102076.03;2080720;28;20893;-71
2022/10/27 04:22:39;;;;;;;23.42;15.73;;;;;;;11.10;100.00;102083.16;2079804;28;34329;-70
2022/10/27 04:23:41;;;;;;;22.60;15.15;;;;;;;11.06;100.00;102088.53;2071911;28;37099;-71
2022/10/27 04:24:43;;;;;;;19.48;14.18;;;;;;;11.03;100.00;102093.03;2080859;28;20773;-70
2022/10/27 04:25:45;;;;;;;24.25;14.40;;;;;;;10.99;100.00;102089.47;2079539;28;35116;-71
2022/10/27 04:26:47;;;;;;;18.08;14.02;;;;;;;10.97;100.00;102091.28;2072715;28;32803;-71
2022/10/27 04:27:49;;;;;;;21.90;13.32;;;;;;;10.93;100.00;102097.56;2072276;28;34612;-70
2022/10/27 04:28:51;;;;;;;21.63;13.73;;;;;;;10.92;100.00;102090.41;2071535;28;40481;-70
2022/10/27 04:29:52;;;;;;;19.95;13.43;;;;;;;10.92;100.00;102094.91;2073333;28;20088;-70
2022/10/27 04:30:54;;;;;;;23.58;13.70;;;;;;;10.88;100.00;102094.03;2072603;28;32365;-70
2022/10/27 04:31:56;;;;;;;21.20;13.75;;;;;;;10.88;100.00;102099.38;2072143;28;41244;-70
2022/10/27 04:32:58;;;;;;;25.02;15.55;;;;;;;10.86;100.00;102087.78;2072304;28;38670;-71
2022/10/27 04:33:59;;;;;;;27.15;16.17;;;;;;;10.89;100.00;102091.34;2071268;28;35895;-70
2022/10/27 04:35:01;;;;;;;20.35;13.57;;;;;;;10.85;100.00;102091.34;2072145;28;34396;-71
2022/10/27 04:36:05;;;;;;;16.73;11.65;;;;;;;10.85;100.00;102094.03;2072895;28;20034;-71
2022/10/27 04:37:07;;;;;;;18.35;13.45;;;;;;;10.86;100.00;102095.81;2071975;28;38878;-71
2022/10/27 04:38:08;;;;;;;20.73;13.80;;;;;;;10.86;100.00;102091.34;2080151;28;36267;-70
2022/10/27 04:39:14;;;;;;;18.45;13.70;;;;;;;10.81;100.00;102085.13;2079820;28;30081;-70
2022/10/27 04:40:16;;;;;;;22.58;13.95;;;;;;;10.81;100.00;102084.25;2072419;28;39869;-71
2022/10/27 04:41:18;;;;;;;20.52;14.07;;;;;;;10.82;100.00;102088.69;2073240;28;20148;-70
2022/10/27 04:42:20;;;;;;;27.05;15.57;;;;;;;10.81;100.00;102086.91;2072547;28;33817;-70
2022/10/27 04:43:21;;;;;;;21.77;13.52;;;;;;;10.79;100.00;102080.69;2072048;28;33854;-70
2022/10/27 04:44:23;;;;;;;23.33;14.38;;;;;;;10.75;100.00;102090.53;2072085;28;37375;-72
2022/10/27 04:45:25;;;;;;;19.15;14.23;;;;;;;10.75;100.00;102087.84;2072703;28;29157;-71
2022/10/27 04:46:27;;;;;;;23.80;14.43;;;;;;;10.74;100.00;102079.81;2073026;28;20050;-70
2022/10/27 04:47:28;;;;;;;24.70;15.93;;;;;;;10.74;100.00;102083.38;2072330;28;33987;-70
2022/10/27 04:48:30;;;;;;;26.83;15.45;;;;;;;10.71;100.00;102083.38;2072188;28;36757;-70
2022/10/27 04:49:32;;;;;;;23.70;15.50;;;;;;;10.69;100.00;102079.81;2072350;28;36173;-71
2022/10/27 04:50:33;;;;;;;23.55;15.40;;;;;;;10.65;100.00;102081.63;2072356;28;38556;-71
2022/10/27 04:51:35;;;;;;;28.42;18.25;;;;;;;10.62;100.00;102070.94;2073313;28;20051;-70
2022/10/27 04:52:39;;;;;;;22.17;13.60;;;;;;;10.62;100.00;102081.66;2073154;28;20050;-71
2022/10/27 04:53:42;;;;;;;25.48;15.55;;;;;;;10.61;100.00;102079.00;2072501;28;27425;-71
2022/10/27 04:54:46;;;;;;;23.38;16.13;;;;;;;10.63;100.00;102088.78;2072936;28;29745;-71
2022/10/27 04:55:51;;;;;;;26.50;17.48;;;;;;;10.63;100.00;102088.78;2079765;28;37403;-71
2022/10/27 04:56:53;;;;;;;28.85;17.38;;;;;;;10.64;100.00;102085.22;2080134;28;20037;-71
2022/10/27 04:57:54;;;;;;;25.00;16.33;;;;;;;10.60;100.00;102087.91;2072982;28;20042;-70